Time;durP1;ratioP1;P1;durP2;ratioP2;P2;SDS_P1;SDS_P2;PMS_P1;PMS_P2;Temp;Humidity;BMP_temperature;BMP_pressure;BME280_temperature;BME280_humidity;BME280_pressure;Samples;Min_cycle;Max_cycle;Signal;HPM_P1;HPM_P2
2023/10/21 00:01:06;;;;;;;29.40;18.55;;;8.50;99.90;;;;;;5053823;28;20205;-61
2023/10/21 00:03:33;;;;;;;24.10;18.00;;;8.50;99.90;;;;;;5054834;28;20197;-61
2023/10/21 00:06:00;;;;;;;30.17;19.15;;;8.50;99.90;;;;;;5054491;28;20228;-60
2023/10/21 00:08:29;;;;;;;29.73;21.27;;;8.50;99.90;;;;;;5053986;28;20217;-60
2023/10/21 00:11:05;;;;;;;25.85;18.55;;;8.50;99.90;;;;;;5053215;28;20209;-60
2023/10/21 00:13:32;;;;;;;27.83;18.23;;;8.40;99.90;;;;;;5054886;28;20189;-61
2023/10/21 00:15:59;;;;;;;26.90;19.38;;;8.30;99.90;;;;;;5053500;28;20553;-60
2023/10/21 00:18:26;;;;;;;37.92;18.92;;;8.30;99.90;;;;;;5053230;28;20232;-60
2023/10/21 00:20:54;;;;;;;29.05;18.35;;;8.20;99.90;;;;;;5053319;28;20209;-60
2023/10/21 00:23:22;;;;;;;26.02;17.38;;;8.20;99.90;;;;;;5053248;28;20198;-60
2023/10/21 00:25:49;;;;;;;35.63;19.60;;;8.10;99.90;;;;;;5052544;28;20209;-59
2023/10/21 00:28:15;;;;;;;33.97;21.65;;;8.10;99.90;;;;;;5055935;28;20201;-60
2023/10/21 00:30:45;;;;;;;35.05;20.33;;;8.10;99.90;;;;;;5057328;28;20759;-60
2023/10/21 00:33:13;;;;;;;53.42;21.88;;;8.10;99.90;;;;;;5057299;28;20682;-61
2023/10/21 00:35:40;;;;;;;46.33;22.25;;;8.10;99.90;;;;;;5056949;28;20286;-59
2023/10/21 00:38:08;;;;;;;43.28;21.02;;;8.20;99.90;;;;;;5057178;28;20221;-60
2023/10/21 00:40:35;;;;;;;46.28;22.75;;;8.20;99.90;;;;;;5058276;28;20208;-60
2023/10/21 00:43:02;;;;;;;36.10;22.35;;;8.20;99.90;;;;;;5057643;28;20311;-60
2023/10/21 00:45:29;;;;;;;51.22;23.13;;;8.20;99.90;;;;;;5056830;28;20729;-60
2023/10/21 00:47:56;;;;;;;89.63;25.85;;;8.20;99.90;;;;;;5058566;28;20198;-60
2023/10/21 00:50:23;;;;;;;56.03;23.08;;;8.20;99.90;;;;;;5057323;28;20205;-61
2023/10/21 00:52:49;;;;;;;72.40;25.30;;;8.30;99.90;;;;;;5057442;28;20205;-60
2023/10/21 00:55:18;;;;;;;73.65;24.05;;;8.30;99.90;;;;;;5057642;28;20224;-60
2023/10/21 00:57:44;;;;;;;56.80;23.50;;;8.30;99.90;;;;;;5057462;28;20222;-60
2023/10/21 01:00:12;;;;;;;52.05;22.50;;;8.30;99.90;;;;;;5057749;28;20202;-60
2023/10/21 01:02:41;;;;;;;61.58;21.88;;;8.30;99.90;;;;;;5057316;28;20201;-60
2023/10/21 01:05:08;;;;;;;48.55;22.55;;;8.30;99.90;;;;;;5057009;28;20222;-60
2023/10/21 01:07:36;;;;;;;83.28;22.10;;;8.30;99.90;;;;;;5058640;28;20680;-59
2023/10/21 01:10:03;;;;;;;53.42;20.85;;;8.30;99.90;;;;;;5056762;28;20679;-60
2023/10/21 01:12:31;;;;;;;48.53;20.27;;;8.30;99.90;;;;;;5057526;28;20656;-60
2023/10/21 01:14:58;;;;;;;50.25;20.88;;;8.30;99.90;;;;;;5057132;28;20226;-60
2023/10/21 01:17:25;;;;;;;55.40;19.20;;;8.30;99.90;;;;;;5057343;28;20256;-61
2023/10/21 01:19:51;;;;;;;49.08;20.55;;;8.30;99.90;;;;;;5057240;28;20693;-60
2023/10/21 01:22:18;;;;;;;45.38;22.05;;;8.20;99.90;;;;;;5057061;28;20664;-60
2023/10/21 01:24:46;;;;;;;47.92;20.67;;;8.30;99.90;;;;;;5058291;28;20235;-60
2023/10/21 01:27:13;;;;;;;55.10;20.77;;;8.30;99.90;;;;;;5057163;28;20209;-61
2023/10/21 01:29:40;;;;;;;85.03;23.65;;;8.30;99.90;;;;;;5059044;28;20201;-60
2023/10/21 01:32:07;;;;;;;47.58;21.88;;;8.30;99.90;;;;;;5058573;28;20202;-60
2023/10/21 01:34:34;;;;;;;93.35;22.17;;;8.30;99.90;;;;;;5057089;28;20308;-61
2023/10/21 01:37:01;;;;;;;56.67;23.08;;;8.30;99.90;;;;;;5056288;28;20222;-60
2023/10/21 01:39:28;;;;;;;61.65;22.00;;;8.30;99.90;;;;;;5056232;28;20197;-60
2023/10/21 01:41:56;;;;;;;58.88;20.88;;;8.30;99.90;;;;;;5055895;28;20208;-60
2023/10/21 01:44:23;;;;;;;52.03;20.20;;;8.30;99.90;;;;;;5055733;28;20218;-59
2023/10/21 01:46:49;;;;;;;78.22;21.25;;;8.30;99.90;;;;;;5055635;28;20293;-60
2023/10/21 01:49:16;;;;;;;45.50;19.83;;;8.30;99.90;;;;;;5055561;28;20679;-60
2023/10/21 01:51:43;;;;;;;64.03;19.27;;;8.30;99.90;;;;;;5055242;28;20205;-60
2023/10/21 01:54:09;;;;;;;41.20;20.02;;;8.30;99.90;;;;;;5055754;28;20218;-60
2023/10/21 01:56:36;;;;;;;50.55;22.30;;;8.30;99.90;;;;;;5056864;28;20201;-60
2023/10/21 01:59:04;;;;;;;42.47;19.85;;;8.30;99.90;;;;;;5059157;28;20228;-61
2023/10/21 02:01:31;;;;;;;43.63;19.77;;;8.30;99.90;;;;;;5057847;28;20201;-60
2023/10/21 02:03:58;;;;;;;58.67;20.33;;;8.30;99.90;;;;;;5056070;28;20222;-60
2023/10/21 02:06:24;;;;;;;43.72;19.30;;;8.30;99.90;;;;;;5056820;28;20202;-60
2023/10/21 02:08:51;;;;;;;45.67;19.23;;;8.30;99.90;;;;;;5056134;28;20197;-60
2023/10/21 02:11:21;;;;;;;43.85;19.38;;;8.30;99.90;;;;;;5058409;28;20208;-60
2023/10/21 02:13:48;;;;;;;55.58;18.88;;;8.30;99.90;;;;;;5057525;28;20225;-60
2023/10/21 02:16:17;;;;;;;42.33;19.60;;;8.30;99.90;;;;;;5055318;28;20213;-60
2023/10/21 02:18:44;;;;;;;37.30;18.85;;;8.20;99.90;;;;;;5058864;28;20296;-60
2023/10/21 02:21:10;;;;;;;34.75;19.50;;;8.20;99.90;;;;;;5059224;28;20204;-60
2023/10/21 02:23:37;;;;;;;74.90;20.15;;;8.20;99.90;;;;;;5056741;28;20667;-61
2023/10/21 02:26:06;;;;;;;42.25;19.23;;;8.30;99.90;;;;;;5056388;28;20198;-60
2023/10/21 02:28:34;;;;;;;61.20;18.45;;;8.30;99.90;;;;;;5056564;28;20243;-60
2023/10/21 02:31:03;;;;;;;40.90;19.48;;;8.30;99.90;;;;;;5056954;28;20281;-59
2023/10/21 02:33:31;;;;;;;36.65;19.40;;;8.30;99.90;;;;;;5059348;28;20220;-60
2023/10/21 02:35:58;;;;;;;40.30;19.23;;;8.30;99.90;;;;;;5096500;22;20232;-62
2023/10/21 02:38:25;;;;;;;38.50;19.27;;;8.30;99.90;;;;;;5074899;28;20702;-62
2023/10/21 02:40:52;;;;;;;41.63;19.30;;;8.30;99.90;;;;;;5075038;28;20579;-63
2023/10/21 02:43:18;;;;;;;42.22;18.95;;;8.30;99.90;;;;;;5075322;28;20610;-62
2023/10/21 02:45:45;;;;;;;46.83;19.42;;;8.30;99.90;;;;;;5075100;28;20232;-61
2023/10/21 02:48:11;;;;;;;42.58;19.08;;;8.30;99.90;;;;;;5074855;28;20201;-61
2023/10/21 02:50:39;;;;;;;36.57;18.57;;;8.30;99.90;;;;;;5073474;28;20201;-60
2023/10/21 02:53:06;;;;;;;38.13;18.98;;;8.30;99.90;;;;;;5074361;28;20443;-61
2023/10/21 02:55:33;;;;;;;37.13;21.08;;;8.40;99.90;;;;;;5074151;28;20224;-61
2023/10/21 02:57:59;;;;;;;39.58;19.45;;;8.40;99.90;;;;;;5073962;28;20217;-61
2023/10/21 03:00:26;;;;;;;38.55;19.17;;;8.40;99.90;;;;;;5073888;28;20209;-61
2023/10/21 03:02:53;;;;;;;34.58;19.23;;;8.40;99.90;;;;;;5074140;28;20630;-61
2023/10/21 03:05:20;;;;;;;33.63;19.13;;;8.40;99.90;;;;;;5074146;28;20217;-61
2023/10/21 03:07:48;;;;;;;36.58;19.88;;;8.50;99.90;;;;;;5073810;28;20200;-61
2023/10/21 03:10:15;;;;;;;37.25;20.13;;;8.50;99.90;;;;;;5073811;28;20686;-61
2023/10/21 03:12:42;;;;;;;34.95;19.13;;;8.50;99.90;;;;;;5074013;28;20205;-61
2023/10/21 03:15:09;;;;;;;35.95;19.05;;;8.50;99.90;;;;;;5073699;28;20228;-61
2023/10/21 03:17:36;;;;;;;34.17;19.30;;;8.50;99.90;;;;;;5074187;28;20221;-61
2023/10/21 03:20:04;;;;;;;37.15;18.90;;;8.50;99.90;;;;;;5073405;28;20756;-61
2023/10/21 03:22:31;;;;;;;35.78;19.70;;;8.60;99.90;;;;;;5073871;28;20641;-61
2023/10/21 03:24:59;;;;;;;35.13;19.50;;;8.60;99.90;;;;;;5073777;28;20237;-61
2023/10/21 03:27:26;;;;;;;35.45;20.08;;;8.60;99.90;;;;;;5074506;28;20223;-62
2023/10/21 03:29:52;;;;;;;32.28;19.23;;;8.60;99.90;;;;;;5074302;28;20201;-61
2023/10/21 03:32:19;;;;;;;32.35;18.92;;;8.60;99.90;;;;;;5073623;28;20196;-61
2023/10/21 03:34:46;;;;;;;31.10;19.35;;;8.60;99.90;;;;;;5072961;28;20240;-61
2023/10/21 03:37:13;;;;;;;28.42;19.17;;;8.60;99.90;;;;;;5073311;28;20209;-61
2023/10/21 03:39:41;;;;;;;30.10;17.90;;;8.70;99.90;;;;;;5073046;28;20201;-62
2023/10/21 03:42:09;;;;;;;30.98;19.92;;;8.70;99.90;;;;;;5073124;28;20205;-62
2023/10/21 03:44:35;;;;;;;33.75;19.63;;;8.70;99.90;;;;;;5073269;28;20242;-62
2023/10/21 03:47:02;;;;;;;34.20;18.42;;;8.70;99.90;;;;;;5073530;28;20538;-62
2023/10/21 03:49:30;;;;;;;34.85;19.33;;;8.70;99.90;;;;;;5073369;28;20205;-63
2023/10/21 03:51:57;;;;;;;31.20;20.15;;;8.80;99.90;;;;;;5073877;28;20201;-62
2023/10/21 03:54:23;;;;;;;28.23;19.00;;;8.80;99.90;;;;;;5073024;28;20221;-62
2023/10/21 03:56:51;;;;;;;32.88;19.00;;;8.80;99.90;;;;;;5073240;28;20201;-63
2023/10/21 03:59:19;;;;;;;26.45;18.17;;;8.80;99.90;;;;;;5073083;28;20711;-62
2023/10/21 04:01:46;;;;;;;28.38;18.35;;;8.90;99.90;;;;;;5088460;22;20229;-60
2023/10/21 04:04:13;;;;;;;29.77;17.48;;;8.90;99.90;;;;;;5053442;28;20212;-61
2023/10/21 04:06:40;;;;;;;31.52;18.60;;;8.90;99.90;;;;;;5053641;28;20325;-61
2023/10/21 04:12:21;;;;;;;28.58;19.70;;;9.00;99.90;;;;;;5098736;27;1253030;-62
2023/10/21 04:14:48;;;;;;;28.05;18.50;;;9.00;99.90;;;;;;5133946;28;20698;-61
2023/10/21 04:17:15;;;;;;;26.00;18.13;;;9.00;99.90;;;;;;5132075;28;20202;-62
2023/10/21 04:19:42;;;;;;;27.63;18.83;;;9.10;99.90;;;;;;5132213;28;20201;-65
2023/10/21 04:22:09;;;;;;;27.00;18.50;;;9.10;99.90;;;;;;5131827;27;20218;-62
2023/10/21 04:24:35;;;;;;;30.38;19.42;;;9.10;99.90;;;;;;5131683;28;20271;-62
2023/10/21 04:27:03;;;;;;;28.05;17.55;;;9.10;99.90;;;;;;5132303;28;20209;-62
2023/10/21 04:29:33;;;;;;;29.60;19.05;;;9.20;99.90;;;;;;5131998;28;20210;-61
2023/10/21 04:31:59;;;;;;;29.13;18.70;;;9.20;99.90;;;;;;5131532;27;20231;-61
2023/10/21 04:34:26;;;;;;;27.48;16.77;;;9.20;99.90;;;;;;5131076;28;20199;-61
2023/10/21 04:36:53;;;;;;;30.25;18.92;;;9.20;99.90;;;;;;5131243;28;20199;-61
2023/10/21 04:39:20;;;;;;;29.13;18.80;;;9.20;99.90;;;;;;5131051;28;20202;-62
2023/10/21 04:41:49;;;;;;;26.05;18.17;;;9.20;99.90;;;;;;5131330;27;20235;-61
2023/10/21 04:44:15;;;;;;;31.85;20.67;;;9.20;99.90;;;;;;5131220;28;20718;-61
2023/10/21 04:46:43;;;;;;;28.33;18.45;;;9.30;99.90;;;;;;5131536;28;20225;-61
2023/10/21 04:49:10;;;;;;;29.00;18.95;;;9.30;99.90;;;;;;5131455;28;20210;-62
2023/10/21 04:51:37;;;;;;;28.88;18.88;;;9.30;99.90;;;;;;5131449;27;20264;-61
2023/10/21 04:54:04;;;;;;;30.55;18.70;;;9.30;99.90;;;;;;5131456;28;20205;-61
2023/10/21 04:56:31;;;;;;;28.08;19.23;;;9.30;99.90;;;;;;5131078;28;20665;-62
2023/10/21 04:58:59;;;;;;;25.33;17.35;;;9.30;99.90;;;;;;5131086;28;20701;-61
2023/10/21 05:01:25;;;;;;;29.00;19.02;;;9.30;99.90;;;;;;5130567;27;20233;-61
2023/10/21 05:03:54;;;;;;;27.63;18.65;;;9.30;99.90;;;;;;5130803;28;20209;-61
2023/10/21 05:06:20;;;;;;;33.77;19.73;;;9.40;99.90;;;;;;5130963;28;20195;-61
2023/10/21 05:08:47;;;;;;;29.73;20.33;;;9.40;99.90;;;;;;5130651;28;20938;-61
2023/10/21 05:11:14;;;;;;;27.35;18.25;;;9.40;99.90;;;;;;5130556;27;20227;-61
2023/10/21 05:13:41;;;;;;;25.98;18.92;;;9.40;99.90;;;;;;5130475;28;20198;-61
2023/10/21 05:16:08;;;;;;;26.92;19.35;;;9.40;99.90;;;;;;5130726;28;20270;-61
2023/10/21 05:18:35;;;;;;;23.85;17.20;;;9.30;99.90;;;;;;5130361;28;20207;-61
2023/10/21 05:21:06;;;;;;;31.10;20.17;;;9.40;99.90;;;;;;5130518;27;20211;-61
2023/10/21 05:23:33;;;;;;;28.92;17.08;;;9.40;99.90;;;;;;5118265;28;20195;-61
2023/10/21 05:25:59;;;;;;;28.92;19.17;;;9.40;99.90;;;;;;5117718;28;20202;-60
2023/10/21 05:28:25;;;;;;;29.00;18.60;;;9.40;99.90;;;;;;5118122;28;20210;-61
2023/10/21 05:30:52;;;;;;;28.60;19.00;;;9.40;99.90;;;;;;5117444;28;20617;-61
2023/10/21 05:33:19;;;;;;;27.05;18.00;;;9.40;99.90;;;;;;5117592;28;20206;-60
2023/10/21 05:35:47;;;;;;;28.73;18.90;;;9.40;99.90;;;;;;5116878;28;20677;-60
2023/10/21 05:38:15;;;;;;;26.30;17.83;;;9.40;99.90;;;;;;5116895;28;20200;-61
2023/10/21 05:40:43;;;;;;;27.83;18.20;;;9.50;99.90;;;;;;5116635;28;20785;-60
2023/10/21 05:43:10;;;;;;;28.85;18.05;;;9.50;99.90;;;;;;5117638;28;20811;-60
2023/10/21 05:45:36;;;;;;;29.80;18.50;;;9.50;99.90;;;;;;5117834;28;20230;-60
2023/10/21 05:48:04;;;;;;;33.88;19.35;;;9.50;99.90;;;;;;5116851;28;20287;-63
2023/10/21 05:50:31;;;;;;;23.20;17.17;;;9.50;99.90;;;;;;5117357;28;20282;-60
2023/10/21 05:52:58;;;;;;;30.90;19.13;;;9.60;99.90;;;;;;5116724;28;20456;-61
2023/10/21 05:55:27;;;;;;;32.00;19.25;;;9.60;99.90;;;;;;5116808;28;20207;-60
2023/10/21 05:57:54;;;;;;;25.60;18.07;;;9.60;99.90;;;;;;5116585;28;20609;-61
2023/10/21 06:00:21;;;;;;;26.70;18.27;;;9.60;99.90;;;;;;5116270;28;20437;-59
2023/10/21 06:02:47;;;;;;;27.80;19.15;;;9.60;99.90;;;;;;5116261;28;20909;-59
2023/10/21 06:05:15;;;;;;;26.80;17.97;;;9.60;99.90;;;;;;5116374;28;20200;-61
2023/10/21 06:07:42;;;;;;;26.58;17.75;;;9.70;99.90;;;;;;5116343;28;20491;-60
2023/10/21 06:10:09;;;;;;;27.70;18.93;;;9.70;99.90;;;;;;5116238;28;20285;-61
2023/10/21 06:12:39;;;;;;;28.27;18.77;;;9.70;99.90;;;;;;5115330;28;20484;-61
2023/10/21 06:15:07;;;;;;;32.53;20.40;;;9.70;99.90;;;;;;5115817;28;20199;-61
2023/10/21 06:17:34;;;;;;;25.67;18.23;;;9.70;99.90;;;;;;5115841;28;20202;-61
2023/10/21 06:20:01;;;;;;;23.77;17.73;;;9.70;99.90;;;;;;5115825;28;20438;-61
2023/10/21 06:22:29;;;;;;;27.83;18.30;;;9.80;99.90;;;;;;5115839;28;20324;-61
2023/10/21 06:24:56;;;;;;;25.13;17.20;;;9.80;99.90;;;;;;5115616;28;20202;-61
2023/10/21 06:27:22;;;;;;;24.77;17.17;;;9.80;99.90;;;;;;5115532;28;20535;-61
2023/10/21 06:29:50;;;;;;;29.50;19.77;;;9.80;99.90;;;;;;5115386;28;20445;-59
2023/10/21 06:32:17;;;;;;;29.30;18.93;;;9.80;99.90;;;;;;5115287;28;20496;-60
2023/10/21 06:34:44;;;;;;;26.70;18.70;;;9.90;99.90;;;;;;5114334;28;20448;-61
2023/10/21 06:37:11;;;;;;;26.77;18.27;;;9.90;99.90;;;;;;5115549;28;20445;-61
2023/10/21 06:39:38;;;;;;;25.70;17.30;;;9.90;99.90;;;;;;5115454;28;20445;-61
2023/10/21 06:42:05;;;;;;;29.20;18.83;;;10.00;99.90;;;;;;5115576;28;20461;-60
2023/10/21 06:44:32;;;;;;;26.00;17.47;;;10.00;99.90;;;;;;5115098;28;20437;-60
2023/10/21 06:46:59;;;;;;;28.07;18.90;;;10.00;99.90;;;;;;5116428;28;20438;-61
2023/10/21 06:49:26;;;;;;;25.47;17.93;;;10.10;99.90;;;;;;5117167;28;20433;-60
2023/10/21 06:51:55;;;;;;;26.80;18.80;;;10.10;99.90;;;;;;5115581;28;20503;-61
2023/10/21 06:54:21;;;;;;;22.47;17.00;;;10.10;99.90;;;;;;5114942;28;20442;-61
2023/10/21 06:56:48;;;;;;;26.33;17.70;;;10.10;99.90;;;;;;5114979;28;20441;-61
2023/10/21 06:59:15;;;;;;;28.20;18.20;;;10.20;99.90;;;;;;5115060;28;20438;-61
2023/10/21 07:01:42;;;;;;;25.00;18.27;;;10.30;99.90;;;;;;5114731;28;20453;-61
2023/10/21 07:04:10;;;;;;;27.37;19.67;;;10.30;99.90;;;;;;5114791;28;20881;-59
2023/10/21 07:06:38;;;;;;;23.10;18.10;;;10.40;99.90;;;;;;5114987;28;20441;-61
2023/10/21 07:09:05;;;;;;;27.03;17.83;;;10.40;99.90;;;;;;5114657;28;20441;-61
2023/10/21 07:11:31;;;;;;;22.83;17.60;;;10.40;99.90;;;;;;5114784;28;20496;-61
2023/10/21 07:13:59;;;;;;;24.73;18.87;;;10.50;99.90;;;;;;5114365;28;20442;-62
2023/10/21 07:16:26;;;;;;;27.33;18.23;;;10.50;99.90;;;;;;5114198;28;21013;-61
2023/10/21 07:18:52;;;;;;;25.60;17.70;;;10.60;99.90;;;;;;5114269;28;20430;-61
2023/10/21 07:21:21;;;;;;;23.00;17.13;;;10.60;99.90;;;;;;5114202;28;20461;-61
2023/10/21 07:23:48;;;;;;;25.57;17.93;;;10.70;99.90;;;;;;5114288;28;20437;-61
2023/10/21 07:26:14;;;;;;;25.10;17.67;;;10.80;99.90;;;;;;5114405;28;20441;-62
2023/10/21 07:28:41;;;;;;;22.87;17.57;;;10.80;99.90;;;;;;5114699;28;20433;-60
2023/10/21 07:31:08;;;;;;;23.57;17.33;;;10.80;99.90;;;;;;5114536;28;20458;-60
2023/10/21 07:33:35;;;;;;;20.60;16.60;;;10.90;99.90;;;;;;5115600;28;20437;-61
2023/10/21 07:36:04;;;;;;;24.63;18.43;;;10.90;99.90;;;;;;5114223;28;20927;-61
2023/10/21 07:38:32;;;;;;;20.63;15.70;;;10.90;99.90;;;;;;5115020;28;20502;-61
2023/10/21 07:40:59;;;;;;;20.70;17.97;;;11.00;99.90;;;;;;5115025;28;20462;-61
2023/10/21 07:43:26;;;;;;;23.53;18.13;;;11.00;99.90;;;;;;5114343;28;20445;-59
2023/10/21 07:45:53;;;;;;;18.80;15.13;;;11.00;99.90;;;;;;5113574;28;20490;-61
2023/10/21 07:48:19;;;;;;;20.03;16.53;;;11.00;99.90;;;;;;5114227;28;20448;-61
2023/10/21 07:50:54;;;;;;;20.10;15.90;;;11.00;99.90;;;;;;5114350;28;20444;-60
2023/10/21 07:53:21;;;;;;;19.73;16.87;;;11.10;99.90;;;;;;5114006;28;20600;-62
2023/10/21 07:55:50;;;;;;;24.93;17.13;;;11.10;99.90;;;;;;5114401;28;20487;-62
2023/10/21 07:58:17;;;;;;;18.77;15.60;;;11.20;99.90;;;;;;5114882;28;20448;-61
2023/10/21 08:00:44;;;;;;;20.23;16.80;;;11.20;99.90;;;;;;5115362;28;20444;-61
2023/10/21 08:03:11;;;;;;;19.40;16.50;;;11.30;99.90;;;;;;5115535;28;20438;-61
2023/10/21 08:05:38;;;;;;;20.63;16.37;;;11.30;99.90;;;;;;5115796;28;20441;-62
2023/10/21 08:08:05;;;;;;;19.43;16.37;;;11.30;99.90;;;;;;5115123;28;20441;-61
2023/10/21 08:10:32;;;;;;;20.83;15.70;;;11.40;99.90;;;;;;5113713;28;20935;-61
2023/10/21 08:13:00;;;;;;;19.20;15.63;;;11.40;99.90;;;;;;5113639;28;20517;-61
2023/10/21 08:15:29;;;;;;;19.17;16.33;;;11.40;99.90;;;;;;5113945;28;20452;-61
2023/10/21 08:17:56;;;;;;;18.00;15.47;;;11.40;99.90;;;;;;5114786;28;20446;-62
2023/10/21 08:20:22;;;;;;;18.80;16.00;;;11.50;99.90;;;;;;5114845;28;20441;-61
2023/10/21 08:22:49;;;;;;;18.10;14.77;;;11.50;99.90;;;;;;5115639;28;20489;-61
2023/10/21 08:25:16;;;;;;;16.57;14.33;;;11.60;99.90;;;;;;5114086;28;20445;-62
2023/10/21 08:27:43;;;;;;;18.87;14.27;;;11.60;99.90;;;;;;5113832;28;20437;-62
2023/10/21 08:30:13;;;;;;;19.40;14.60;;;11.70;99.90;;;;;;5114084;28;20461;-61
2023/10/21 08:32:39;;;;;;;18.60;14.27;;;11.80;99.90;;;;;;5113586;28;20477;-62
2023/10/21 08:35:07;;;;;;;16.70;13.13;;;11.90;99.90;;;;;;5114311;28;20438;-62
2023/10/21 08:37:33;;;;;;;15.13;13.53;;;12.00;99.90;;;;;;5115040;28;20441;-61
2023/10/21 08:40:07;;;;;;;15.90;14.20;;;12.10;99.90;;;;;;5114325;28;20959;-61
2023/10/21 08:42:34;;;;;;;13.80;12.37;;;12.10;99.90;;;;;;5113176;28;20959;-62
2023/10/21 08:45:06;;;;;;;16.53;13.53;;;12.20;99.90;;;;;;5112981;28;20438;-62
2023/10/21 08:47:36;;;;;;;14.87;12.63;;;12.30;99.90;;;;;;5112343;28;20426;-61
2023/10/21 08:50:03;;;;;;;15.17;13.17;;;12.40;99.90;;;;;;5113198;28;20435;-61
2023/10/21 08:52:31;;;;;;;14.73;11.63;;;12.40;99.90;;;;;;5112826;28;20975;-61
2023/10/21 08:54:58;;;;;;;13.70;12.30;;;12.50;99.90;;;;;;5112961;28;20880;-59
2023/10/21 08:57:25;;;;;;;13.97;10.73;;;12.60;99.90;;;;;;5113806;28;20437;-62
2023/10/21 08:59:52;;;;;;;13.50;11.53;;;12.60;99.90;;;;;;5117430;28;20456;-62
2023/10/21 09:02:19;;;;;;;11.20;9.60;;;12.70;99.90;;;;;;5117348;28;20464;-61
2023/10/21 09:04:47;;;;;;;11.10;10.00;;;12.80;99.90;;;;;;5118359;28;20439;-62
2023/10/21 09:07:14;;;;;;;10.17;9.17;;;12.90;99.90;;;;;;5120565;28;20451;-60
2023/10/21 09:09:41;;;;;;;12.10;9.63;;;13.10;99.90;;;;;;5119648;28;20445;-61
2023/10/21 09:12:11;;;;;;;10.70;9.70;;;13.30;99.90;;;;;;5119442;28;20575;-63
2023/10/21 09:14:52;;;;;;;11.50;9.30;;;13.50;99.90;;;;;;5119644;28;20530;-62
2023/10/21 09:17:21;;;;;;;9.27;8.37;;;13.60;99.90;;;;;;5118838;28;20444;-61
2023/10/21 09:19:52;;;;;;;9.23;7.90;;;13.80;99.90;;;;;;5120214;28;20854;-61
2023/10/21 09:22:25;;;;;;;8.10;7.37;;;14.00;99.90;;;;;;5121630;28;20457;-62
2023/10/21 09:25:08;;;;;;;7.37;6.67;;;14.30;99.90;;;;;;5118701;28;20836;-62
2023/10/21 09:27:34;;;;;;;3.70;3.30;;;14.50;99.90;;;;;;5116422;28;20422;-62
2023/10/21 09:30:01;;;;;;;4.37;3.20;;;14.80;99.90;;;;;;5116604;28;20451;-62
2023/10/21 09:32:28;;;;;;;3.60;3.30;;;15.00;99.90;;;;;;5116536;28;20480;-62
2023/10/21 09:35:14;;;;;;;4.50;3.00;;;15.00;99.90;;;;;;5117182;28;20446;-60
2023/10/21 09:37:40;;;;;;;2.43;2.23;;;15.00;99.90;;;;;;5117958;28;20508;-62
2023/10/21 09:40:09;;;;;;;2.93;2.63;;;15.00;99.90;;;;;;5116533;28;20445;-61
2023/10/21 09:42:38;;;;;;;3.77;3.40;;;15.00;99.90;;;;;;5116231;28;20505;-62
2023/10/21 09:45:06;;;;;;;4.97;3.53;;;15.10;99.90;;;;;;5116352;28;20448;-62
2023/10/21 09:47:37;;;;;;;3.63;3.27;;;15.10;99.90;;;;;;5116561;28;20448;-61
2023/10/21 09:50:09;;;;;;;3.73;3.03;;;15.10;99.90;;;;;;5116188;28;20444;-62
2023/10/21 09:52:44;;;;;;;4.00;3.60;;;15.20;99.90;;;;;;5116187;28;20481;-61
2023/10/21 09:55:12;;;;;;;2.90;2.60;;;15.20;99.90;;;;;;5116163;28;20425;-61
2023/10/21 09:57:41;;;;;;;3.33;2.87;;;15.20;99.90;;;;;;5115829;28;20452;-61
2023/10/21 10:00:10;;;;;;;1.93;1.83;;;15.20;99.90;;;;;;5115778;28;20452;-62
2023/10/21 10:02:37;;;;;;;3.20;2.10;;;15.20;99.90;;;;;;5115788;28;20461;-62
2023/10/21 10:05:08;;;;;;;1.70;1.60;;;15.20;99.90;;;;;;5115988;28;20782;-62
2023/10/21 10:07:36;;;;;;;2.10;1.73;;;15.30;99.90;;;;;;5115846;28;20426;-62
2023/10/21 10:10:05;;;;;;;2.00;1.73;;;15.30;99.90;;;;;;5115729;28;20869;-61
2023/10/21 10:12:37;;;;;;;1.70;1.50;;;15.30;99.90;;;;;;5115527;28;20481;-63
2023/10/21 10:15:32;;;;;;;1.50;1.40;;;15.30;99.90;;;;;;5116120;28;20426;-61
2023/10/21 10:18:00;;;;;;;2.60;1.60;;;15.30;99.90;;;;;;5115809;28;21099;-63
2023/10/21 10:20:28;;;;;;;2.23;2.00;;;15.20;99.90;;;;;;5115781;28;20433;-63
2023/10/21 10:22:59;;;;;;;2.47;2.00;;;15.20;99.90;;;;;;5115476;28;20998;-62
2023/10/21 10:25:30;;;;;;;2.10;1.67;;;15.20;99.90;;;;;;5115969;28;20430;-61
2023/10/21 10:27:57;;;;;;;5.30;1.50;;;15.20;99.90;;;;;;5115985;28;20418;-62
2023/10/21 10:30:24;;;;;;;2.10;1.63;;;15.20;99.90;;;;;;5116132;28;20443;-61
2023/10/21 10:32:51;;;;;;;5.23;3.83;;;15.40;99.90;;;;;;5116183;28;20843;-63
2023/10/21 10:35:34;;;;;;;2.13;1.93;;;15.70;99.90;;;;;;5116745;28;20957;-60
2023/10/21 10:38:02;;;;;;;2.70;1.50;;;16.00;99.90;;;;;;5117908;28;20426;-62
2023/10/21 10:40:34;;;;;;;1.90;1.47;;;16.10;99.90;;;;;;5117418;28;20442;-62
2023/10/21 10:43:03;;;;;;;1.30;1.20;;;16.20;99.90;;;;;;5115989;28;20457;-62
2023/10/21 10:45:31;;;;;;;2.80;1.83;;;16.40;99.90;;;;;;5116847;28;20442;-61
2023/10/21 10:48:01;;;;;;;5.10;1.50;;;16.40;99.90;;;;;;5115581;28;20437;-63
2023/10/21 10:50:28;;;;;;;1.80;1.60;;;16.30;99.90;;;;;;5114664;28;20954;-62
2023/10/21 10:52:56;;;;;;;1.80;1.47;;;16.20;99.90;;;;;;5114833;28;20484;-62
2023/10/21 10:55:24;;;;;;;2.10;1.07;;;16.10;99.90;;;;;;5115591;28;20447;-62
2023/10/21 10:57:52;;;;;;;4.07;2.00;;;16.00;99.90;;;;;;5115146;28;20452;-61
2023/10/21 11:00:23;;;;;;;1.50;1.07;;;16.10;99.90;;;;;;5114544;28;20467;-63
2023/10/21 11:02:50;;;;;;;1.60;1.43;;;16.20;99.90;;;;;;5114890;28;20453;-61
2023/10/21 11:05:20;;;;;;;1.87;1.00;;;16.20;99.90;;;;;;5114521;28;20956;-62
2023/10/21 11:07:47;;;;;;;1.70;1.40;;;16.30;99.90;;;;;;5115304;28;20540;-63
2023/10/21 11:10:20;;;;;;;1.30;1.20;;;16.30;99.90;;;;;;5115484;28;20441;-63
2023/10/21 11:12:48;;;;;;;0.70;0.70;;;16.30;99.90;;;;;;5114528;28;20482;-62
2023/10/21 11:15:16;;;;;;;0.80;0.67;;;16.40;99.90;;;;;;5115052;28;20510;-64
2023/10/21 11:17:46;;;;;;;1.07;0.90;;;16.40;99.90;;;;;;5115393;28;20442;-63
2023/10/21 11:20:13;;;;;;;1.10;0.90;;;16.40;99.90;;;;;;5114025;28;20782;-63
2023/10/21 11:22:41;;;;;;;3.07;1.07;;;16.30;99.90;;;;;;5113989;28;20468;-60
2023/10/21 11:25:08;;;;;;;2.40;1.50;;;16.20;99.90;;;;;;5114278;28;20449;-62
2023/10/21 11:27:38;;;;;;;3.57;0.90;;;16.30;99.90;;;;;;5113541;28;20959;-62
2023/10/21 11:30:08;;;;;;;1.80;1.37;;;16.50;99.90;;;;;;5114949;28;20437;-62
2023/10/21 11:32:37;;;;;;;2.03;1.10;;;16.70;99.90;;;;;;5114165;28;20521;-62
2023/10/21 11:35:04;;;;;;;1.10;0.80;;;16.80;99.90;;;;;;5113828;28;20442;-62
2023/10/21 11:37:31;;;;;;;4.03;1.00;;;17.00;99.90;;;;;;5114045;28;20465;-62
2023/10/21 11:39:58;;;;;;;1.10;0.77;;;17.00;99.90;;;;;;5114414;28;20819;-62
2023/10/21 11:42:27;;;;;;;1.97;1.47;;;17.10;99.90;;;;;;5122979;28;20462;-62
2023/10/21 11:45:00;;;;;;;1.63;0.80;;;17.10;99.90;;;;;;5115150;28;20449;-61
2023/10/21 11:47:28;;;;;;;2.57;1.67;;;17.10;99.90;;;;;;5113910;28;20440;-62
2023/10/21 11:49:55;;;;;;;3.93;2.80;;;17.10;99.90;;;;;;5113998;28;20801;-61
2023/10/21 11:52:23;;;;;;;6.23;1.53;;;17.20;99.90;;;;;;5114349;28;20468;-61
2023/10/21 12:06:46;;;;;;;1.00;0.70;;;17.50;99.90;;;;;;5111622;28;20393;-62
2023/10/21 12:14:57;;;;;;;0.90;0.73;;;17.60;99.90;;;;;;5108958;28;20430;-61
2023/10/21 12:23:17;;;;;;;0.97;0.57;;;17.60;99.90;;;;;;5110075;28;20437;-62
2023/10/21 12:26:18;;;;;;;1.50;0.70;;;17.60;99.90;;;;;;5110782;28;20468;-62
2023/10/21 12:31:57;;;;;;;0.67;0.40;;;17.60;99.90;;;;;;5110500;28;20441;-60
2023/10/21 12:34:35;;;;;;;1.60;0.80;;;17.50;99.90;;;;;;5110640;28;20426;-61
2023/10/21 12:39:48;;;;;;;0.90;0.80;;;17.50;99.90;;;;;;5110372;28;20394;-61
2023/10/21 12:42:28;;;;;;;0.80;0.50;;;17.50;99.90;;;;;;5110317;28;20465;-66
2023/10/21 12:44:55;;;;;;;0.70;0.50;;;17.60;99.90;;;;;;5110060;28;20537;-62
2023/10/21 12:47:23;;;;;;;1.03;0.40;;;17.60;99.90;;;;;;5110108;28;20433;-62
2023/10/21 12:49:51;;;;;;;0.70;0.60;;;17.60;99.90;;;;;;5110498;28;20445;-62
2023/10/21 12:52:18;;;;;;;0.87;0.63;;;17.60;99.90;;;;;;5109876;28;20487;-61
2023/10/21 12:54:45;;;;;;;0.70;0.50;;;17.60;99.90;;;;;;5110078;28;20438;-61
2023/10/21 12:57:14;;;;;;;2.30;0.60;;;17.70;99.90;;;;;;5109687;28;20998;-62
2023/10/21 12:59:41;;;;;;;1.20;0.53;;;17.90;99.90;;;;;;5110324;28;20507;-61
2023/10/21 13:02:08;;;;;;;1.37;0.80;;;17.90;99.90;;;;;;5110380;28;20455;-60
2023/10/21 13:04:40;;;;;;;0.73;0.40;;;17.80;99.90;;;;;;5110360;28;20442;-59
2023/10/21 13:07:08;;;;;;;3.90;0.50;;;17.70;99.90;;;;;;5108343;28;20503;-62
2023/10/21 13:09:37;;;;;;;1.37;0.50;;;17.50;99.90;;;;;;5095914;28;20439;-60
2023/10/21 13:12:09;;;;;;;0.90;0.50;;;17.40;99.90;;;;;;5095928;28;20819;-62
2023/10/21 13:14:36;;;;;;;0.80;0.47;;;17.30;99.90;;;;;;5095857;28;20439;-62